Centennial, WY (82055)

2:16 AM MDT on August 25, 2016 (GMT -0600)
West of Centennial WY | | Change Station

Elev 8274 ft 41.30 °N, 106.15 °W | Updated 14 seconds ago

Clear
Clear
40.8 °F
Feels Like 41 °F
N
1.8
Wind Variable Wind from NW
Gusts 2.5 mph

Today
High -- | Low -- °F
--% Chance of Precip.
Yesterday
High -- | Low -- °F
Precip. -- in
Pressure 30.01 in
Visibility 10.0 miles
Clouds Clear
Windchill 41 °F
Dew Point 36 °F
Humidity 82%
Rainfall 0.00 in
Snow Depth Not available.
6:24 AM 7:47 PM
Waning Gibbous, 48% visible
METAR KLAR 250753Z AUTO 17008KT 10SM CLR 07/05 A3027 RMK AO2 SLP162 T00720050 TSNO
Pressure 30.01 in
Visibility 10.0 miles
Clouds Clear
Windchill 41 °F
Dew Point 36 °F
Humidity 82%
Rainfall 0.00 in
Snow Depth Not available.
6:24 AM 7:47 PM
Waning Gibbous, 48% visible
METAR KLAR 250753Z AUTO 17008KT 10SM CLR 07/05 A3027 RMK AO2 SLP162 T00720050 TSNO

10-Day Weather Forecast

Almanac

Astronomy

Aug. 25, 2016 Rise Set
Actual Time
Civil Twilight
Nautical Twilight
Astronomical Twilight
Moon
Length of Visible Light
Length of Day
Tomorrow will be .
, % of the Moon is Illuminated

Today's Extremes

State Highs State Lows

Community

WunderPhotos

Upload Photos

1,934,814 photos uploaded!

WunderBlog® & News

Nearby

Air Quality

  Air Quality AQ Index Pollutant
Not available.

Snow Depth

Station Depth Elevation

Earthquake Activity

City Distance Mag. Time & Date
Minimum magnitude displayed is 2.5.

Coastal Water Temperatures

Place Temperature

Stations

Nearby Weather Stations

Station Location Temp. Windchill Dew Point Humidity Wind Precip. Elev Updated Type
                   

Watches & Warnings

There are currently no watches in effect.